createdAt,value
2023-05-07T00:05:23.638Z,6.13
2023-05-07T00:35:59.657Z,4.80
2023-05-07T00:56:16.996Z,5.60
2023-05-07T01:36:33.103Z,4.97
2023-05-07T01:56:28.353Z,5.13
2023-05-07T02:17:16.102Z,4.87
2023-05-07T02:37:30.678Z,4.90
2023-05-07T03:08:00.860Z,4.70
2023-05-07T04:18:38.000Z,4.50
2023-05-07T04:59:32.858Z,4.13
2023-05-07T05:03:52.532Z,4.07
2023-05-07T05:19:41.247Z,4.37
2023-05-07T06:10:25.295Z,2.70
2023-05-07T07:30:52.253Z,2.53
2023-05-07T07:56:37.216Z,2.47
2023-05-07T08:32:19.008Z,1.63
2023-05-07T08:57:40.282Z,2.53
2023-05-07T09:37:34.334Z,1.60
2023-05-07T09:58:07.217Z,2.30
2023-05-07T11:04:16.258Z,1.77
2023-05-07T11:39:18.401Z,1.90
2023-05-07T12:05:06.671Z,1.70
2023-05-07T12:55:14.074Z,1.47
2023-05-07T13:16:04.415Z,1.60
2023-05-07T13:51:33.313Z,1.90
2023-05-07T14:21:55.804Z,1.80
2023-05-07T14:47:07.373Z,1.80
2023-05-07T15:07:05.681Z,1.50
2023-05-07T15:28:03.493Z,1.83
2023-05-07T15:48:10.510Z,1.53
2023-05-07T16:13:25.055Z,2.33
2023-05-07T16:43:40.859Z,2.20
2023-05-07T17:09:06.222Z,3.00
2023-05-07T17:34:28.800Z,2.80
2023-05-07T17:59:44.338Z,3.30
2023-05-07T18:50:36.392Z,4.33
2023-05-07T19:25:43.061Z,4.83
2023-05-07T19:56:12.454Z,6.27
2023-05-07T20:16:45.652Z,6.87
2023-05-07T20:46:37.336Z,10.33
2023-05-07T21:12:29.978Z,12.27
